Time;durP1;ratioP1;P1;durP2;ratioP2;P2;SDS_P1;SDS_P2;PMS_P1;PMS_P2;Temp;Humidity;BMP_temperature;BMP_pressure;BME280_temperature;BME280_humidity;BME280_pressure;Samples;Min_cycle;Max_cycle;Signal;HPM_P1;HPM_P2
2021/11/07 00:03:08;;;;;;;4.50;1.50;;;12.50;99.90;;;;;;6213690;23;20264;-93
2021/11/07 00:05:43;;;;;;;7.60;1.33;;;12.50;99.90;;;;;;6190606;23;20555;-96
2021/11/07 00:12:30;;;;;;;2.37;1.63;;;12.60;99.90;;;;;;6098952;23;20205;-93
2021/11/07 00:15:48;;;;;;;8.07;1.60;;;12.60;99.90;;;;;;6217108;23;20216;-94
2021/11/07 00:21:48;;;;;;;10.53;1.70;;;12.70;99.90;;;;;;6238066;22;20631;-94
2021/11/07 00:24:21;;;;;;;6.80;2.50;;;12.70;99.90;;;;;;6210609;23;20224;-94
2021/11/07 00:26:56;;;;;;;4.33;2.07;;;12.70;99.90;;;;;;6211570;23;20205;-94
2021/11/07 00:29:26;;;;;;;5.13;1.93;;;12.70;99.90;;;;;;6210685;23;20183;-94
2021/11/07 00:37:08;;;;;;;11.83;2.27;;;12.60;99.90;;;;;;6237866;23;20201;-94
2021/11/07 00:42:09;;;;;;;5.53;1.60;;;12.40;99.90;;;;;;6236715;23;20613;-95
2021/11/07 00:45:23;;;;;;;3.67;1.37;;;12.30;99.90;;;;;;6187310;23;20204;-94
2021/11/07 00:47:49;;;;;;;3.20;2.90;;;12.30;99.90;;;;;;6210362;23;20162;-94
2021/11/07 00:50:12;;;;;;;10.93;2.40;;;12.40;99.90;;;;;;6236067;23;20165;-94
2021/11/07 00:52:54;;;;;;;1.23;1.13;;;12.50;99.90;;;;;;6164195;23;20165;-93
2021/11/07 00:55:35;;;;;;;4.73;2.20;;;12.50;99.90;;;;;;6210646;23;20309;-94
2021/11/07 00:58:14;;;;;;;6.37;1.67;;;12.50;99.90;;;;;;6236908;23;20306;-94
2021/11/07 01:01:24;;;;;;;5.97;1.60;;;12.40;99.90;;;;;;6210893;23;20232;-95
2021/11/07 01:03:30;;;;;;;8.03;2.07;;;12.30;99.90;;;;;;6216899;23;20216;-94
2021/11/07 01:05:56;;;;;;;9.53;2.77;;;12.30;99.90;;;;;;6211183;23;20201;-95
2021/11/07 01:08:21;;;;;;;4.40;1.27;;;12.20;99.90;;;;;;6185112;23;20600;-94
2021/11/07 01:10:48;;;;;;;2.97;1.43;;;12.30;99.90;;;;;;6237776;23;20161;-92
2021/11/07 01:13:14;;;;;;;6.20;2.70;;;12.30;99.90;;;;;;6210473;23;20516;-94
2021/11/07 01:15:40;;;;;;;15.73;1.33;;;12.40;99.90;;;;;;6210664;23;20197;-95
2021/11/07 01:18:06;;;;;;;7.93;1.70;;;12.40;99.90;;;;;;6185222;23;20200;-93
2021/11/07 01:20:33;;;;;;;2.93;1.80;;;12.50;99.90;;;;;;6237770;22;20539;-94
2021/11/07 01:23:11;;;;;;;6.13;1.30;;;12.50;99.90;;;;;;6211405;23;20161;-94
2021/11/07 01:25:46;;;;;;;3.03;1.10;;;12.50;99.90;;;;;;6210706;23;20650;-95
2021/11/07 01:28:13;;;;;;;11.53;3.37;;;12.50;99.90;;;;;;6236865;22;20585;-94
2021/11/07 01:30:47;;;;;;;8.53;2.27;;;12.50;99.90;;;;;;6237230;22;20197;-93
2021/11/07 01:33:19;;;;;;;0.83;0.73;;;12.50;99.90;;;;;;6188717;23;20212;-92
2021/11/07 01:35:59;;;;;;;8.87;1.83;;;12.50;99.90;;;;;;6210091;23;20671;-93
2021/11/07 01:38:28;;;;;;;8.53;1.53;;;12.40;99.90;;;;;;6209835;22;20200;-92
2021/11/07 01:43:50;;;;;;;14.17;1.63;;;12.30;99.90;;;;;;6178363;23;20216;-93
2021/11/07 01:49:19;;;;;;;3.23;1.40;;;12.30;99.90;;;;;;6211590;23;20204;-92
2021/11/07 01:51:47;;;;;;;2.63;1.10;;;12.20;99.90;;;;;;6234846;22;20197;-94
2021/11/07 01:54:24;;;;;;;0.80;0.43;;;12.10;99.90;;;;;;6236662;22;20266;-94
2021/11/07 01:56:51;;;;;;;5.87;0.80;;;12.20;99.90;;;;;;6212976;23;20193;-94
2021/11/07 01:59:17;;;;;;;7.83;1.93;;;12.20;99.90;;;;;;6236503;22;20573;-95
2021/11/07 02:01:43;;;;;;;2.80;1.00;;;12.20;99.90;;;;;;6185582;23;20157;-95
2021/11/07 02:04:09;;;;;;;3.40;1.50;;;12.10;99.90;;;;;;6209901;23;20209;-94
2021/11/07 02:06:35;;;;;;;4.53;2.07;;;12.00;99.90;;;;;;6236364;22;20224;-93
2021/11/07 02:09:01;;;;;;;2.17;1.70;;;12.00;99.90;;;;;;6184786;23;20531;-95
2021/11/07 02:11:27;;;;;;;5.20;1.50;;;11.90;99.90;;;;;;6210157;22;20278;-94
2021/11/07 02:13:54;;;;;;;7.40;1.83;;;11.80;99.90;;;;;;6186467;23;20195;-93
2021/11/07 02:16:21;;;;;;;1.87;1.77;;;11.90;99.90;;;;;;6210780;23;20216;-95
2021/11/07 02:18:48;;;;;;;9.97;0.80;;;11.80;99.90;;;;;;6209869;23;20271;-94
2021/11/07 02:21:14;;;;;;;1.07;0.40;;;11.90;99.90;;;;;;6210330;23;20373;-94
2021/11/07 02:23:40;;;;;;;10.40;1.77;;;11.90;99.90;;;;;;6211848;23;20292;-92
2021/11/07 02:26:06;;;;;;;3.03;0.83;;;11.90;99.90;;;;;;6237861;22;20156;-92
2021/11/07 02:28:42;;;;;;;6.27;0.83;;;11.90;99.90;;;;;;6187558;23;20165;-94
2021/11/07 02:31:11;;;;;;;6.33;1.30;;;11.90;99.90;;;;;;6238140;22;20197;-94
2021/11/07 02:33:38;;;;;;;3.03;1.20;;;11.90;99.90;;;;;;6238169;22;20201;-94
2021/11/07 02:36:09;;;;;;;1.77;1.50;;;11.90;99.90;;;;;;6210575;23;20681;-93
2021/11/07 02:38:36;;;;;;;9.20;2.63;;;11.90;99.90;;;;;;6237818;22;20193;-93
2021/11/07 02:41:03;;;;;;;2.97;0.67;;;11.90;99.90;;;;;;6186690;23;20157;-95
2021/11/07 02:43:29;;;;;;;2.07;1.13;;;11.90;99.90;;;;;;6186818;23;20713;-94
2021/11/07 02:45:55;;;;;;;1.87;0.90;;;11.90;99.90;;;;;;6186649;23;20201;-93
2021/11/07 02:48:20;;;;;;;4.67;1.03;;;11.80;99.90;;;;;;6186444;23;20197;-92
2021/11/07 02:50:46;;;;;;;5.50;0.83;;;11.80;99.90;;;;;;6162114;23;20235;-95
2021/11/07 02:53:13;;;;;;;0.10;0.10;;;11.70;99.90;;;;;;6185758;22;20588;-94
2021/11/07 02:55:39;;;;;;;1.47;1.30;;;11.60;99.90;;;;;;6186982;23;20192;-92
2021/11/07 02:58:05;;;;;;;2.73;0.40;;;11.50;99.90;;;;;;6186384;23;20217;-93
2021/11/07 03:00:32;;;;;;;2.57;0.87;;;11.40;99.90;;;;;;6211396;23;20209;-94
2021/11/07 03:02:59;;;;;;;2.23;0.60;;;11.40;99.90;;;;;;6211278;23;20647;-93
2021/11/07 03:05:28;;;;;;;10.47;0.83;;;11.40;99.90;;;;;;6211345;22;20192;-95
2021/11/07 03:07:54;;;;;;;4.73;1.27;;;11.50;99.90;;;;;;6212505;23;20162;-95
2021/11/07 03:10:21;;;;;;;1.73;1.20;;;11.50;99.90;;;;;;6210817;23;20706;-93
2021/11/07 03:13:06;;;;;;;0.87;0.87;;;11.40;99.90;;;;;;6211844;23;20193;-94
2021/11/07 03:15:33;;;;;;;1.43;0.53;;;11.30;99.90;;;;;;6205140;23;20193;-94
2021/11/07 03:18:00;;;;;;;10.37;1.30;;;11.20;99.90;;;;;;6211218;23;20200;-94
2021/11/07 03:20:26;;;;;;;0.23;0.23;;;11.10;99.90;;;;;;6160897;22;20224;-93
2021/11/07 03:22:53;;;;;;;5.80;1.43;;;11.00;99.90;;;;;;6212254;23;20169;-94
2021/11/07 03:25:19;;;;;;;0.27;0.27;;;11.00;99.90;;;;;;6210743;23;20652;-94
2021/11/07 03:27:46;;;;;;;2.60;0.80;;;10.90;99.90;;;;;;6237703;22;20204;-95
2021/11/07 03:30:54;;;;;;;1.63;0.70;;;10.90;99.90;;;;;;6211031;23;20193;-94
2021/11/07 03:33:26;;;;;;;6.23;1.27;;;10.90;99.90;;;;;;6236126;22;20221;-94
2021/11/07 03:35:53;;;;;;;1.17;0.63;;;11.00;99.90;;;;;;6211258;23;20708;-93
2021/11/07 03:38:19;;;;;;;2.97;1.23;;;11.10;99.90;;;;;;6237131;22;20157;-93
2021/11/07 03:40:45;;;;;;;7.07;1.03;;;11.10;99.90;;;;;;6161808;23;20212;-93
2021/11/07 03:43:10;;;;;;;3.87;0.60;;;11.20;99.90;;;;;;6186052;23;20197;-94
2021/11/07 03:45:36;;;;;;;1.87;0.53;;;11.20;99.90;;;;;;6209929;23;20208;-93
2021/11/07 03:48:03;;;;;;;6.53;1.53;;;11.20;99.90;;;;;;6236416;22;20575;-94
2021/11/07 03:50:29;;;;;;;4.23;1.37;;;11.20;99.90;;;;;;6186082;22;20189;-94
2021/11/07 03:52:56;;;;;;;2.70;1.30;;;11.20;99.90;;;;;;6211260;23;20692;-93
2021/11/07 03:55:22;;;;;;;0.93;0.70;;;11.20;99.90;;;;;;6210003;23;20220;-93
2021/11/07 03:57:48;;;;;;;3.40;1.07;;;11.20;99.90;;;;;;6237330;22;20532;-94
2021/11/07 04:00:16;;;;;;;4.60;1.13;;;11.10;99.90;;;;;;6210175;23;20808;-93
2021/11/07 04:02:42;;;;;;;7.47;0.77;;;11.10;99.90;;;;;;6185575;23;20476;-92
2021/11/07 04:05:09;;;;;;;2.43;1.23;;;11.20;99.90;;;;;;6236014;22;20193;-93
2021/11/07 04:07:37;;;;;;;6.97;1.00;;;11.20;99.90;;;;;;6186436;23;20666;-95
2021/11/07 04:10:06;;;;;;;10.20;1.00;;;11.30;99.90;;;;;;6210301;23;20189;-93
2021/11/07 04:12:32;;;;;;;0.30;0.27;;;11.30;99.90;;;;;;6210637;23;20197;-90
2021/11/07 04:14:57;;;;;;;2.40;0.50;;;10.90;99.90;;;;;;6209712;23;20259;-93
2021/11/07 04:17:23;;;;;;;0.77;0.77;;;10.60;99.90;;;;;;6185399;22;20185;-93
2021/11/07 04:19:49;;;;;;;0.97;0.53;;;10.50;99.90;;;;;;6209648;23;20208;-92
2021/11/07 04:22:15;;;;;;;2.47;0.63;;;10.30;99.90;;;;;;6184010;23;20205;-91
2021/11/07 04:24:41;;;;;;;7.20;0.90;;;10.10;99.90;;;;;;6208656;23;20211;-92
2021/11/07 04:27:07;;;;;;;0.93;0.50;;;10.00;99.90;;;;;;6235674;22;20197;-94
2021/11/07 04:29:33;;;;;;;16.60;3.73;;;10.00;99.90;;;;;;6209004;23;20190;-94
2021/11/07 04:31:59;;;;;;;0.73;0.60;;;10.10;99.90;;;;;;6184085;23;20248;-93
2021/11/07 04:34:25;;;;;;;3.03;1.00;;;10.20;99.90;;;;;;6183862;23;20646;-90
2021/11/07 04:36:53;;;;;;;1.27;0.80;;;10.10;99.90;;;;;;6208910;23;20193;-93
2021/11/07 04:39:20;;;;;;;5.83;1.50;;;10.00;99.90;;;;;;6209045;23;20204;-94
2021/11/07 04:41:46;;;;;;;0.30;0.13;;;9.90;99.90;;;;;;6209019;23;20531;-93
2021/11/07 04:44:12;;;;;;;1.57;0.60;;;10.00;99.90;;;;;;6183744;22;20652;-92
2021/11/07 04:46:38;;;;;;;0.63;0.47;;;10.10;99.90;;;;;;6209704;23;20248;-93
2021/11/07 04:49:04;;;;;;;1.57;1.47;;;10.20;99.90;;;;;;6183808;23;20227;-92
2021/11/07 04:51:31;;;;;;;6.80;1.60;;;10.30;99.90;;;;;;6208640;23;20201;-94
2021/11/07 04:53:57;;;;;;;3.10;0.67;;;10.10;99.90;;;;;;6183366;23;20589;-92
2021/11/07 04:56:23;;;;;;;0.10;0.10;;;9.90;99.90;;;;;;6234682;22;20650;-92
2021/11/07 04:58:50;;;;;;;0.20;0.20;;;9.80;99.90;;;;;;6184498;23;20256;-91
2021/11/07 05:01:16;;;;;;;0.53;0.00;;;9.70;99.90;;;;;;6183287;23;20208;-92
2021/11/07 05:03:42;;;;;;;1.00;0.47;;;9.60;99.90;;;;;;6235396;22;20235;-93
2021/11/07 05:06:08;;;;;;;2.90;0.37;;;9.80;99.90;;;;;;6207934;23;20266;-91
2021/11/07 05:08:34;;;;;;;0.83;0.77;;;10.00;99.90;;;;;;6183379;23;20308;-93
2021/11/07 05:11:00;;;;;;;0.30;0.30;;;10.10;99.90;;;;;;6208509;23;20157;-92
2021/11/07 05:13:26;;;;;;;7.03;1.50;;;10.00;99.90;;;;;;6183635;23;20201;-91
2021/11/07 05:15:52;;;;;;;3.20;0.77;;;9.90;99.90;;;;;;6208474;23;20595;-94
2021/11/07 05:18:19;;;;;;;1.43;1.33;;;9.90;99.90;;;;;;6159601;23;20236;-95
2021/11/07 05:20:47;;;;;;;3.70;0.30;;;10.00;99.90;;;;;;6235085;22;20217;-92
2021/11/07 05:23:14;;;;;;;1.47;0.80;;;9.80;99.90;;;;;;6183524;22;20477;-92
2021/11/07 05:25:40;;;;;;;1.97;1.37;;;9.70;99.90;;;;;;6208956;23;20162;-93
2021/11/07 05:28:06;;;;;;;8.10;1.33;;;9.60;99.90;;;;;;6208159;23;20491;-93
2021/11/07 05:30:31;;;;;;;1.30;0.87;;;9.70;99.90;;;;;;6235423;22;20510;-94
2021/11/07 05:32:57;;;;;;;2.53;0.93;;;9.70;99.90;;;;;;6234496;22;20197;-95
2021/11/07 05:35:23;;;;;;;0.67;0.37;;;9.70;99.90;;;;;;6235509;22;20169;-91
2021/11/07 05:37:50;;;;;;;3.20;0.67;;;9.70;99.90;;;;;;6184386;23;20533;-93
2021/11/07 05:40:20;;;;;;;0.60;0.57;;;9.70;99.90;;;;;;6234429;22;20656;-92
2021/11/07 05:42:48;;;;;;;0.90;0.83;;;9.70;99.90;;;;;;6209128;23;20194;-92
2021/11/07 05:45:14;;;;;;;2.00;0.67;;;9.90;99.90;;;;;;6208308;23;20678;-90
2021/11/07 05:47:42;;;;;;;0.63;0.63;;;9.90;99.90;;;;;;6208881;23;20264;-93
2021/11/07 05:50:08;;;;;;;1.17;0.90;;;9.90;99.90;;;;;;6183969;22;20166;-92
2021/11/07 05:52:34;;;;;;;3.20;0.80;;;9.90;99.90;;;;;;6208990;23;20218;-93
2021/11/07 05:55:00;;;;;;;0.90;0.50;;;9.90;99.90;;;;;;6158991;23;20199;-90
2021/11/07 05:57:26;;;;;;;1.03;1.03;;;10.00;99.90;;;;;;6184860;23;20378;-90
2021/11/07 05:59:52;;;;;;;3.23;1.23;;;10.00;99.90;;;;;;6185367;23;20507;-92
2021/11/07 06:02:17;;;;;;;3.47;2.27;;;10.10;99.90;;;;;;6195418;22;20157;-91
2021/11/07 06:04:43;;;;;;;1.17;0.73;;;10.10;99.90;;;;;;6210924;23;20189;-94
2021/11/07 06:07:10;;;;;;;5.70;1.50;;;10.00;99.90;;;;;;6236282;22;20200;-94
2021/11/07 06:09:35;;;;;;;1.90;0.60;;;9.90;99.90;;;;;;6160336;23;20197;-91
2021/11/07 06:12:02;;;;;;;0.20;0.20;;;9.90;99.90;;;;;;6185388;23;20200;-93
2021/11/07 06:14:28;;;;;;;0.30;0.30;;;10.10;99.90;;;;;;6210070;22;20201;-92
2021/11/07 06:16:54;;;;;;;3.60;0.80;;;10.10;99.90;;;;;;6237728;23;20158;-93
2021/11/07 06:19:20;;;;;;;6.80;1.23;;;9.90;99.90;;;;;;6209790;23;20201;-93
2021/11/07 06:21:46;;;;;;;0.57;0.57;;;9.90;99.90;;;;;;6236919;22;20205;-95
2021/11/07 06:24:14;;;;;;;1.30;0.50;;;9.80;99.90;;;;;;6184987;23;20216;-93
2021/11/07 06:26:40;;;;;;;0.87;0.80;;;9.70;99.90;;;;;;6186463;23;20424;-96
2021/11/07 06:29:06;;;;;;;2.33;0.97;;;9.80;99.90;;;;;;6186636;22;20161;-95
2021/11/07 06:31:32;;;;;;;3.10;2.07;;;9.90;99.90;;;;;;6211313;23;20183;-93
2021/11/07 06:33:59;;;;;;;11.23;1.60;;;9.90;99.90;;;;;;6210325;23;20257;-92
2021/11/07 06:36:24;;;;;;;1.63;0.70;;;10.00;99.90;;;;;;6185541;23;20208;-94
2021/11/07 06:38:50;;;;;;;5.00;1.00;;;10.00;99.90;;;;;;6236058;22;20608;-92
2021/11/07 06:41:16;;;;;;;0.93;0.40;;;10.00;99.90;;;;;;6184611;22;20207;-91
2021/11/07 06:43:43;;;;;;;0.50;0.50;;;9.90;99.90;;;;;;6186360;23;20272;-94
2021/11/07 06:46:10;;;;;;;7.00;1.23;;;9.90;99.90;;;;;;6185205;23;20607;-92
2021/11/07 06:48:36;;;;;;;7.40;1.40;;;9.90;99.90;;;;;;6210563;23;20242;-93
2021/11/07 06:51:02;;;;;;;10.93;2.67;;;9.80;99.90;;;;;;6210743;23;20468;-91
2021/11/07 06:53:28;;;;;;;16.43;2.40;;;9.90;99.90;;;;;;6211082;22;20197;-92
2021/11/07 06:55:54;;;;;;;5.63;1.60;;;9.90;99.90;;;;;;6164602;23;20189;-96
2021/11/07 06:58:21;;;;;;;9.60;3.17;;;9.90;99.90;;;;;;6211823;23;20636;-96
2021/11/07 07:00:47;;;;;;;15.67;2.43;;;9.90;99.90;;;;;;6163276;23;20197;-91
2021/11/07 07:03:15;;;;;;;8.07;1.27;;;9.90;99.90;;;;;;6186140;23;20219;-92
2021/11/07 07:05:41;;;;;;;3.70;1.27;;;9.90;99.90;;;;;;6238181;22;20509;-92
2021/11/07 07:08:18;;;;;;;9.87;1.10;;;10.00;99.90;;;;;;6236142;22;20672;-94
2021/11/07 07:11:08;;;;;;;1.40;1.27;;;10.10;99.90;;;;;;6238601;23;20146;-95
2021/11/07 07:13:38;;;;;;;5.33;1.27;;;10.10;99.90;;;;;;6210187;23;20254;-93
2021/11/07 07:29:07;;;;;;;2.53;0.37;;;10.20;99.90;;;;;;6236865;23;20188;-92
2021/11/07 07:34:10;;;;;;;4.53;0.80;;;10.70;99.90;;;;;;6184950;23;20646;-94
2021/11/07 07:36:36;;;;;;;6.03;1.57;;;10.80;99.90;;;;;;6236387;22;20201;-94
2021/11/07 07:39:03;;;;;;;5.60;2.23;;;11.00;99.90;;;;;;6208813;23;20193;-95
2021/11/07 07:41:29;;;;;;;1.03;0.93;;;11.10;99.90;;;;;;6236385;22;20561;-92
2021/11/07 07:43:57;;;;;;;4.93;1.27;;;11.30;99.90;;;;;;6209870;23;20651;-93
2021/11/07 07:46:24;;;;;;;2.57;0.87;;;11.40;99.90;;;;;;6208536;23;20231;-90
2021/11/07 07:48:50;;;;;;;3.00;1.67;;;11.70;99.90;;;;;;6185077;23;20193;-93
2021/11/07 07:51:18;;;;;;;4.43;0.80;;;12.00;99.90;;;;;;6184820;23;20432;-93
2021/11/07 07:53:45;;;;;;;3.07;0.87;;;11.90;99.90;;;;;;6209544;23;20259;-96
2021/11/07 07:56:12;;;;;;;4.43;1.53;;;12.10;99.90;;;;;;6185094;22;20218;-89
2021/11/07 07:58:38;;;;;;;0.90;0.67;;;11.70;99.90;;;;;;6210221;23;20612;-93
2021/11/07 08:01:07;;;;;;;0.47;0.47;;;11.20;99.90;;;;;;6185033;23;20240;-92
2021/11/07 08:03:33;;;;;;;3.63;1.30;;;10.90;99.90;;;;;;6209174;23;20248;-94
2021/11/07 08:05:59;;;;;;;3.17;0.43;;;10.70;99.90;;;;;;6235245;22;20203;-95
2021/11/07 08:08:28;;;;;;;6.57;1.20;;;10.60;99.90;;;;;;6183991;22;20223;-94
2021/11/07 08:10:59;;;;;;;5.63;0.50;;;10.70;99.90;;;;;;6234068;23;20180;-92
2021/11/07 08:13:28;;;;;;;0.60;0.60;;;10.80;99.90;;;;;;6206117;23;20251;-94
2021/11/07 08:15:57;;;;;;;3.83;1.20;;;10.90;99.90;;;;;;6233020;22;20231;-91
2021/11/07 08:18:23;;;;;;;2.53;1.10;;;11.00;99.90;;;;;;6207346;23;20201;-92
2021/11/07 08:20:49;;;;;;;3.90;1.23;;;11.00;99.90;;;;;;6209241;23;20213;-91
2021/11/07 08:23:16;;;;;;;1.60;1.17;;;11.20;99.90;;;;;;6201361;22;20165;-93
2021/11/07 08:25:43;;;;;;;0.70;0.70;;;11.40;99.90;;;;;;6208790;22;20245;-95
2021/11/07 08:28:09;;;;;;;9.00;1.93;;;11.40;99.90;;;;;;6192087;23;20197;-91
2021/11/07 08:30:40;;;;;;;2.07;0.60;;;11.40;99.90;;;;;;6234458;22;20265;-94
2021/11/07 08:33:06;;;;;;;7.03;1.00;;;11.30;99.90;;;;;;6209202;23;20201;-93
2021/11/07 08:35:34;;;;;;;5.33;1.10;;;11.20;99.90;;;;;;6183818;23;20267;-91
2021/11/07 08:38:05;;;;;;;2.77;0.77;;;11.20;99.90;;;;;;6185303;23;20169;-92
2021/11/07 08:40:36;;;;;;;2.10;0.40;;;11.20;99.90;;;;;;6235594;23;20502;-91
2021/11/07 09:02:29;;;;;;;1.70;0.97;;;11.70;99.90;;;;;;6236073;23;20169;-90
2021/11/07 09:04:58;;;;;;;2.43;0.50;;;11.40;99.90;;;;;;6212664;23;20629;-91
2021/11/07 09:07:37;;;;;;;7.70;1.40;;;11.20;99.90;;;;;;6205971;23;20569;-92
2021/11/07 09:10:18;;;;;;;20.03;2.37;;;10.90;99.90;;;;;;6185744;23;20683;-92
2021/11/07 09:12:45;;;;;;;7.30;1.30;;;10.50;99.90;;;;;;6234520;22;20280;-92
2021/11/07 09:15:14;;;;;;;0.80;0.80;;;10.40;99.90;;;;;;6182588;23;20231;-93
2021/11/07 09:17:42;;;;;;;3.20;1.10;;;10.40;99.90;;;;;;6207250;23;20201;-90
2021/11/07 09:20:09;;;;;;;0.20;0.20;;;10.50;99.90;;;;;;6182692;22;20206;-92
2021/11/07 09:22:51;;;;;;;6.43;1.47;;;10.80;99.90;;;;;;6183174;23;20500;-91
2021/11/07 09:25:23;;;;;;;1.90;1.20;;;11.00;99.90;;;;;;6210817;23;20307;-93
2021/11/07 09:28:05;;;;;;;4.33;1.07;;;10.90;99.90;;;;;;6184316;23;20208;-91
2021/11/07 09:30:41;;;;;;;1.33;0.77;;;10.80;99.90;;;;;;6206939;23;20549;-91
2021/11/07 09:33:21;;;;;;;1.90;0.93;;;10.80;99.90;;;;;;6232639;22;20275;-93
2021/11/07 09:36:10;;;;;;;1.67;1.57;;;10.70;99.90;;;;;;6207390;23;20392;-92
2021/11/07 09:38:45;;;;;;;9.50;1.63;;;10.90;99.90;;;;;;6210085;22;20189;-93
2021/11/07 09:48:51;;;;;;;1.23;0.57;;;11.60;99.90;;;;;;6210226;23;20272;-93
2021/11/07 09:51:20;;;;;;;2.13;0.77;;;11.70;99.90;;;;;;6207882;23;20196;-90
2021/11/07 09:53:49;;;;;;;2.80;1.03;;;11.90;99.90;;;;;;6207411;23;20203;-90
2021/11/07 09:56:15;;;;;;;1.90;0.50;;;12.00;99.90;;;;;;6232914;22;20200;-90
2021/11/07 09:58:44;;;;;;;7.67;1.70;;;12.10;99.90;;;;;;6157336;23;20162;-89
2021/11/07 10:01:10;;;;;;;1.43;1.33;;;12.00;99.90;;;;;;6206962;23;20761;-91
2021/11/07 10:03:41;;;;;;;5.53;1.40;;;11.80;99.90;;;;;;6155869;23;20481;-92
2021/11/07 10:06:47;;;;;;;6.67;1.37;;;11.70;99.90;;;;;;6183715;23;20193;-92
2021/11/07 10:09:30;;;;;;;2.77;0.73;;;11.70;99.90;;;;;;6231758;22;20207;-91
2021/11/07 10:12:04;;;;;;;3.10;0.97;;;11.80;99.90;;;;;;6207034;23;20411;-92
2021/11/07 10:14:41;;;;;;;3.60;1.00;;;12.00;99.90;;;;;;6206889;22;20243;-92
2021/11/07 10:17:49;;;;;;;2.17;1.40;;;11.90;99.90;;;;;;6207644;22;20157;-91
2021/11/07 10:20:25;;;;;;;4.43;0.77;;;11.60;99.90;;;;;;6206787;22;20201;-92
2021/11/07 10:23:07;;;;;;;0.97;0.67;;;11.60;99.90;;;;;;6208355;23;20236;-93
2021/11/07 10:25:36;;;;;;;3.10;1.03;;;11.70;99.90;;;;;;6208135;23;20193;-91
2021/11/07 10:28:49;;;;;;;2.17;1.00;;;11.90;99.90;;;;;;6208772;23;20193;-92
2021/11/07 10:31:26;;;;;;;4.87;0.93;;;12.30;99.90;;;;;;6234985;22;20193;-92
2021/11/07 10:34:26;;;;;;;1.83;0.50;;;11.90;99.90;;;;;;6206938;23;20201;-92
2021/11/07 10:48:25;;;;;;;3.63;0.70;;;11.50;99.90;;;;;;6262762;22;20178;-91
2021/11/07 10:53:43;;;;;;;2.63;1.37;;;12.30;99.90;;;;;;6235895;22;20195;-92
2021/11/07 10:56:10;;;;;;;5.03;1.17;;;12.50;99.90;;;;;;6238800;22;20227;-91
2021/11/07 10:58:39;;;;;;;0.70;0.70;;;12.20;99.90;;;;;;6210971;23;20153;-91
2021/11/07 11:01:11;;;;;;;12.00;2.20;;;12.20;99.90;;;;;;6210147;23;20274;-91
2021/11/07 11:03:48;;;;;;;1.27;1.17;;;12.30;99.90;;;;;;6209725;23;20205;-94
2021/11/07 11:06:14;;;;;;;11.90;1.03;;;12.20;99.90;;;;;;6236457;22;20201;-94
2021/11/07 11:08:52;;;;;;;6.60;1.20;;;12.30;99.90;;;;;;6209551;23;20271;-93
2021/11/07 11:11:40;;;;;;;4.17;2.73;;;12.40;99.90;;;;;;6210189;22;20150;-93
2021/11/07 11:17:09;;;;;;;3.10;1.00;;;12.10;99.90;;;;;;6237843;23;20145;-93
2021/11/07 11:27:46;;;;;;;1.10;0.60;;;12.30;99.90;;;;;;6236477;22;20243;-92
2021/11/07 11:35:35;;;;;;;8.10;1.10;;;11.50;99.90;;;;;;6238365;22;20196;-92
2021/11/07 11:41:53;;;;;;;10.07;2.00;;;11.20;99.90;;;;;;6238009;23;20256;-90
2021/11/07 11:43:44;;;;;;;3.60;1.37;;;11.10;99.90;;;;;;6217990;23;20208;-92
2021/11/07 11:46:23;;;;;;;4.17;1.47;;;11.30;99.90;;;;;;6210972;23;20288;-90
2021/11/07 11:51:58;;;;;;;10.10;2.13;;;11.50;99.90;;;;;;6238111;22;20291;-95
2021/11/07 11:57:52;;;;;;;4.57;0.80;;;11.50;99.90;;;;;;6243129;22;20205;-92
2021/11/07 12:00:36;;;;;;;0.33;0.33;;;11.70;99.90;;;;;;6238116;22;20193;-94
2021/11/07 12:03:10;;;;;;;5.30;0.83;;;11.80;99.90;;;;;;6242595;22;20276;-93
2021/11/07 12:05:51;;;;;;;4.30;0.60;;;11.60;99.90;;;;;;6213976;23;20451;-95
2021/11/07 12:08:26;;;;;;;15.40;1.10;;;11.70;99.90;;;;;;6236645;22;20601;-93
2021/11/07 12:11:13;;;;;;;6.97;1.33;;;11.70;99.90;;;;;;6211032;23;20153;-94
2021/11/07 12:16:26;;;;;;;9.73;1.77;;;12.20;99.90;;;;;;6236147;22;20220;-91
2021/11/07 12:19:09;;;;;;;5.33;1.73;;;12.10;99.90;;;;;;6209763;23;20537;-92
2021/11/07 12:21:57;;;;;;;12.00;1.80;;;12.10;99.90;;;;;;6209391;23;20237;-90
2021/11/07 12:24:32;;;;;;;7.27;2.27;;;12.10;99.90;;;;;;6209706;23;20433;-90
2021/11/07 12:27:25;;;;;;;1.90;1.47;;;12.10;99.90;;;;;;6236949;22;20200;-91
2021/11/07 12:29:58;;;;;;;4.20;2.40;;;11.80;99.90;;;;;;6236933;22;20197;-89
2021/11/07 12:32:29;;;;;;;7.23;1.53;;;11.80;99.90;;;;;;6236819;22;20177;-90
2021/11/07 12:40:40;;;;;;;0.93;0.70;;;11.60;99.90;;;;;;6237959;22;20280;-91
2021/11/07 12:43:13;;;;;;;0.30;0.30;;;11.60;99.90;;;;;;6212177;23;20213;-92
2021/11/07 12:45:44;;;;;;;5.33;1.07;;;11.50;99.90;;;;;;6202628;23;20742;-91
2021/11/07 12:48:13;;;;;;;0.20;0.20;;;11.20;99.90;;;;;;6236037;22;20245;-91
2021/11/07 12:50:51;;;;;;;1.07;1.07;;;10.70;99.90;;;;;;6186836;23;20197;-92
2021/11/07 12:53:25;;;;;;;6.60;1.73;;;10.40;99.90;;;;;;6213131;22;20164;-88
2021/11/07 12:55:51;;;;;;;0.90;0.70;;;10.30;99.90;;;;;;6214248;23;20152;-91
2021/11/07 12:58:18;;;;;;;4.60;1.67;;;10.30;99.90;;;;;;6242084;22;20496;-91
2021/11/07 13:00:45;;;;;;;4.43;1.53;;;10.40;99.90;;;;;;6188520;23;20193;-88
2021/11/07 13:03:13;;;;;;;12.53;1.87;;;10.40;99.90;;;;;;6236894;22;20266;-94
2021/11/07 13:05:41;;;;;;;1.43;0.90;;;10.60;99.90;;;;;;6235559;22;20247;-90
2021/11/07 13:08:10;;;;;;;5.60;2.37;;;10.70;99.90;;;;;;6221350;22;20509;-90
2021/11/07 13:13:42;;;;;;;6.87;1.07;;;10.60;99.90;;;;;;6245737;22;20598;-87
2021/11/07 13:16:52;;;;;;;1.70;0.70;;;10.20;99.90;;;;;;6235171;22;20223;-90
2021/11/07 13:19:11;;;;;;;1.10;0.57;;;9.80;99.90;;;;;;6186134;22;20260;-90
2021/11/07 13:30:01;;;;;;;0.83;0.60;;;10.10;99.90;;;;;;6234680;22;20201;-92
2021/11/07 13:34:59;;;;;;;0.73;0.73;;;10.60;99.90;;;;;;6234014;22;20224;-91
2021/11/07 13:37:33;;;;;;;1.70;1.03;;;10.90;99.90;;;;;;6207566;23;20227;-93
2021/11/07 13:40:06;;;;;;;0.77;0.53;;;11.10;99.90;;;;;;6233739;22;20141;-91
2021/11/07 13:42:37;;;;;;;3.73;0.40;;;11.30;99.90;;;;;;6237728;23;20149;-93
2021/11/07 13:45:07;;;;;;;1.53;0.57;;;11.10;99.90;;;;;;6210008;23;20224;-92
2021/11/07 13:47:42;;;;;;;1.13;0.90;;;10.90;99.90;;;;;;6236903;22;20193;-90
2021/11/07 13:50:15;;;;;;;21.80;3.10;;;10.70;99.90;;;;;;6209931;23;20647;-88
2021/11/07 13:52:43;;;;;;;2.37;1.57;;;10.70;99.90;;;;;;6211502;23;20255;-95
2021/11/07 13:55:15;;;;;;;4.00;0.70;;;10.60;99.90;;;;;;6211942;23;20189;-90
2021/11/07 13:57:41;;;;;;;0.90;0.90;;;10.40;99.90;;;;;;6210156;23;20157;-88
2021/11/07 14:00:10;;;;;;;2.17;0.37;;;10.20;99.90;;;;;;6211676;23;20249;-90
2021/11/07 14:02:36;;;;;;;10.70;1.03;;;10.10;99.90;;;;;;6185901;23;20196;-92
2021/11/07 14:05:08;;;;;;;8.63;1.50;;;10.10;99.90;;;;;;6183882;23;20205;-89
2021/11/07 14:07:34;;;;;;;5.53;1.70;;;10.20;99.90;;;;;;6206091;23;20185;-95
2021/11/07 14:10:08;;;;;;;10.03;2.00;;;10.30;99.90;;;;;;6206908;22;20223;-91
2021/11/07 14:12:45;;;;;;;4.87;2.70;;;10.30;99.90;;;;;;6237450;23;20145;-92
2021/11/07 14:15:19;;;;;;;3.13;1.10;;;10.30;99.90;;;;;;6211513;23;20200;-90
2021/11/07 14:17:46;;;;;;;3.87;1.37;;;10.30;99.90;;;;;;6212378;23;20207;-94
2021/11/07 14:20:15;;;;;;;5.00;1.63;;;10.30;99.90;;;;;;6239685;22;20288;-91
2021/11/07 14:23:00;;;;;;;2.43;0.77;;;10.30;99.90;;;;;;6214042;23;20217;-92
2021/11/07 14:25:25;;;;;;;2.00;1.23;;;10.20;99.90;;;;;;6214037;23;20209;-94
2021/11/07 14:27:58;;;;;;;1.97;1.53;;;10.20;99.90;;;;;;6212847;22;20276;-90
2021/11/07 14:30:33;;;;;;;31.20;2.67;;;10.30;99.90;;;;;;6215698;23;20149;-94
2021/11/07 14:33:10;;;;;;;0.73;0.20;;;10.30;99.90;;;;;;6215911;23;20223;-94
2021/11/07 14:35:36;;;;;;;8.80;0.70;;;10.40;99.90;;;;;;6191600;23;20201;-92
2021/11/07 14:38:09;;;;;;;0.27;0.27;;;10.30;99.90;;;;;;6214672;23;20248;-88
2021/11/07 14:41:10;;;;;;;0.83;0.57;;;10.10;99.90;;;;;;6239836;22;20280;-90
2021/11/07 14:44:11;;;;;;;0.53;0.30;;;10.20;99.90;;;;;;6233552;22;20197;-91
2021/11/07 14:46:45;;;;;;;0.30;0.30;;;10.20;99.90;;;;;;6240515;22;20288;-90
2021/11/07 14:49:54;;;;;;;2.27;0.23;;;10.10;99.90;;;;;;6170706;23;20193;-90
2021/11/07 14:52:35;;;;;;;3.97;0.60;;;10.10;99.90;;;;;;6219870;22;20193;-90
2021/11/07 14:55:11;;;;;;;1.57;1.13;;;10.20;99.90;;;;;;6195712;22;20161;-90
2021/11/07 15:01:12;;;;;;;2.00;1.17;;;10.40;99.90;;;;;;6241770;23;20174;-89
2021/11/07 15:03:25;;;;;;;1.37;0.63;;;10.50;99.90;;;;;;6214109;23;20260;-89
2021/11/07 15:09:01;;;;;;;5.63;0.77;;;10.40;99.90;;;;;;6238527;22;20197;-89
2021/11/07 15:11:42;;;;;;;0.40;0.40;;;10.30;99.90;;;;;;6192315;23;20205;-92
2021/11/07 15:14:43;;;;;;;0.70;0.60;;;10.30;99.90;;;;;;6213431;23;20220;-88
2021/11/07 15:17:21;;;;;;;8.90;1.67;;;10.30;99.90;;;;;;6240347;22;20189;-87
2021/11/07 15:19:56;;;;;;;4.63;0.60;;;10.20;99.90;;;;;;6215182;23;20197;-90
2021/11/07 15:22:45;;;;;;;2.27;0.80;;;10.10;99.90;;;;;;6193101;23;20615;-89